createdAt,value
2023-04-22T00:00:04.836Z,9.60
2023-04-22T00:02:37.731Z,10.02
2023-04-22T00:05:07.401Z,9.13
2023-04-22T00:07:35.440Z,9.35
2023-04-22T00:10:03.063Z,8.95
2023-04-22T00:12:30.626Z,8.98
2023-04-22T00:14:58.236Z,8.98
2023-04-22T00:17:25.732Z,9.60
2023-04-22T00:19:53.399Z,7.65
2023-04-22T00:22:20.891Z,7.60
2023-04-22T00:24:48.364Z,8.13
2023-04-22T00:27:15.853Z,8.07
2023-04-22T00:29:43.203Z,8.15
2023-04-22T00:32:10.720Z,8.15
2023-04-22T00:34:38.314Z,8.52
2023-04-22T00:37:06.567Z,8.02
2023-04-22T00:39:34.092Z,9.02
2023-04-22T00:42:02.376Z,9.32
2023-04-22T00:44:30.458Z,9.23
2023-04-22T00:46:59.205Z,8.93
2023-04-22T00:49:28.124Z,8.07
2023-04-22T00:51:55.685Z,8.05
2023-04-22T00:54:23.548Z,7.90
2023-04-22T00:56:51.138Z,8.77
2023-04-22T00:59:18.823Z,8.57
2023-04-22T01:01:47.264Z,8.65
2023-04-22T01:04:15.729Z,8.35
2023-04-22T01:06:44.880Z,7.80
2023-04-22T01:09:12.988Z,7.53
2023-04-22T01:11:41.306Z,7.45
2023-04-22T01:14:08.759Z,7.90
2023-04-22T01:16:39.331Z,8.15
2023-04-22T01:19:08.681Z,7.80
2023-04-22T01:21:36.455Z,7.60
2023-04-22T01:24:04.201Z,8.18
2023-04-22T01:26:32.335Z,7.78
2023-04-22T01:29:02.564Z,8.13
2023-04-22T01:31:30.523Z,8.52
2023-04-22T01:33:59.767Z,9.27
2023-04-22T01:36:28.023Z,7.88
2023-04-22T01:38:56.103Z,8.50
2023-04-22T01:41:27.261Z,8.95
2023-04-22T01:43:56.754Z,8.95
2023-04-22T01:46:24.285Z,9.77
2023-04-22T01:48:52.122Z,9.13
2023-04-22T01:51:22.528Z,9.65
2023-04-22T01:53:50.288Z,10.07
2023-04-22T01:56:18.172Z,9.65
2023-04-22T01:58:45.851Z,9.80
2023-04-22T02:01:14.761Z,9.27
2023-04-22T02:03:42.402Z,9.20
2023-04-22T02:06:11.741Z,8.10
2023-04-22T02:08:39.269Z,8.02
2023-04-22T02:11:06.790Z,8.35
2023-04-22T02:13:38.263Z,9.50
2023-04-22T02:16:06.374Z,9.23
2023-04-22T02:18:34.460Z,9.13
2023-04-22T02:21:02.152Z,9.25
2023-04-22T02:23:29.756Z,9.23
2023-04-22T02:25:57.402Z,9.27
2023-04-22T02:28:24.960Z,9.32
2023-04-22T02:30:52.410Z,9.35
2023-04-22T02:33:21.634Z,9.82
2023-04-22T02:35:49.169Z,9.73
2023-04-22T02:38:20.090Z,9.68
2023-04-22T02:40:47.673Z,9.88
2023-04-22T02:43:15.287Z,9.30
2023-04-22T02:45:42.864Z,9.02
2023-04-22T02:48:11.105Z,9.70
2023-04-22T02:50:38.573Z,9.15
2023-04-22T02:53:06.573Z,10.15
2023-04-22T02:55:34.173Z,9.05
2023-04-22T02:58:01.638Z,9.20
2023-04-22T03:00:30.073Z,8.63
2023-04-22T03:02:57.701Z,8.68
2023-04-22T03:05:34.184Z,8.73
2023-04-22T03:08:03.216Z,8.38
2023-04-22T03:10:32.634Z,8.77
2023-04-22T03:13:00.208Z,8.50
2023-04-22T03:15:27.945Z,8.55
2023-04-22T03:17:55.932Z,9.00
2023-04-22T03:20:24.364Z,8.65
2023-04-22T03:22:52.058Z,8.52
2023-04-22T03:25:20.373Z,8.57
2023-04-22T03:27:53.853Z,8.38
2023-04-22T03:30:21.538Z,8.10
2023-04-22T03:32:49.285Z,8.05
2023-04-22T03:37:51.752Z,9.00
2023-04-22T03:40:24.616Z,8.80
2023-04-22T03:42:52.200Z,8.52
2023-04-22T03:46:06.058Z,8.13
2023-04-22T03:48:37.603Z,10.88
2023-04-22T03:51:11.044Z,8.10
2023-04-22T03:53:40.921Z,8.27
2023-04-22T03:56:10.790Z,7.05
2023-04-22T03:58:44.557Z,7.72
2023-04-22T04:01:12.173Z,7.25
2023-04-22T04:03:41.883Z,6.90
2023-04-22T04:06:10.467Z,7.20
2023-04-22T04:08:38.332Z,6.60
2023-04-22T04:11:06.167Z,6.78
2023-04-22T04:13:33.977Z,7.05
2023-04-22T04:16:21.687Z,7.15
2023-04-22T04:18:55.606Z,7.47
2023-04-22T04:21:27.313Z,6.90
2023-04-22T04:23:56.628Z,7.15
2023-04-22T04:26:27.984Z,7.10
2023-04-22T04:29:03.322Z,7.28
2023-04-22T04:31:30.825Z,6.72
2023-04-22T04:34:00.574Z,6.82
2023-04-22T04:36:29.551Z,6.30
2023-04-22T04:39:10.055Z,6.43
2023-04-22T04:41:39.066Z,6.10
2023-04-22T04:44:07.806Z,5.85
2023-04-22T04:46:38.470Z,5.60
2023-04-22T04:49:09.706Z,5.80
2023-04-22T04:51:46.564Z,5.38
2023-04-22T04:54:14.060Z,5.10
2023-04-22T04:56:42.646Z,5.20
2023-04-22T04:59:11.196Z,5.13
2023-04-22T05:01:40.700Z,4.30
2023-04-22T05:04:12.156Z,4.50
2023-04-22T05:06:42.280Z,4.78
2023-04-22T05:09:10.377Z,5.05
2023-04-22T05:11:38.188Z,5.85
2023-04-22T05:14:12.789Z,7.20
2023-04-22T05:16:42.882Z,8.85
2023-04-22T05:19:10.861Z,8.70
2023-04-22T05:21:38.477Z,8.57
2023-04-22T05:24:06.170Z,7.95
2023-04-22T05:26:34.337Z,6.78
2023-04-22T05:29:07.241Z,6.45
2023-04-22T05:31:34.807Z,6.28
2023-04-22T05:34:02.343Z,6.20
2023-04-22T05:36:31.549Z,6.07
2023-04-22T05:39:00.285Z,8.25
2023-04-22T05:41:28.747Z,8.60
2023-04-22T05:43:58.312Z,8.90
2023-04-22T05:46:26.583Z,8.10
2023-04-22T05:48:56.134Z,8.65
2023-04-22T05:51:59.011Z,8.85
2023-04-22T05:54:33.157Z,9.35
2023-04-22T05:57:00.823Z,9.07
2023-04-22T05:59:28.361Z,9.95
2023-04-22T06:01:56.636Z,10.98
2023-04-22T06:04:25.585Z,8.68
2023-04-22T06:06:56.286Z,9.00
2023-04-22T06:09:24.129Z,8.93
2023-04-22T06:11:51.713Z,8.45
2023-04-22T06:14:19.844Z,8.63
2023-04-22T06:16:48.032Z,8.88
2023-04-22T06:19:15.484Z,8.23
2023-04-22T06:21:43.626Z,8.38
2023-04-22T06:24:11.161Z,8.30
2023-04-22T06:26:38.903Z,6.32
2023-04-22T06:29:06.962Z,7.07
2023-04-22T06:31:35.725Z,8.05
2023-04-22T06:34:03.247Z,4.78
2023-04-22T06:36:33.372Z,5.35
2023-04-22T06:39:03.803Z,3.63
2023-04-22T06:41:53.084Z,2.70
2023-04-22T06:44:32.505Z,2.60
2023-04-22T06:47:18.552Z,2.20
2023-04-22T06:50:02.362Z,3.07
2023-04-22T06:52:35.757Z,2.53
2023-04-22T06:55:04.363Z,3.15
2023-04-22T06:57:33.018Z,2.20
2023-04-22T07:00:00.682Z,2.58
2023-04-22T07:02:28.543Z,2.25
2023-04-22T07:04:56.405Z,2.40
2023-04-22T07:07:25.216Z,2.30
2023-04-22T07:09:53.206Z,2.15
2023-04-22T07:12:20.698Z,2.45
2023-04-22T07:14:49.775Z,2.03
2023-04-22T07:17:19.775Z,2.50
2023-04-22T07:19:47.284Z,2.47
2023-04-22T07:22:14.782Z,2.30
2023-04-22T07:24:42.437Z,1.90
2023-04-22T07:27:09.869Z,2.20
2023-04-22T07:29:37.794Z,2.35
2023-04-22T07:32:06.888Z,2.20
2023-04-22T07:34:34.487Z,2.25
2023-04-22T07:37:02.320Z,1.98
2023-04-22T07:39:29.767Z,1.92
2023-04-22T07:41:57.328Z,2.10
2023-04-22T07:44:24.912Z,1.95
2023-04-22T07:46:52.547Z,1.83
2023-04-22T07:49:20.421Z,1.95
2023-04-22T07:51:48.056Z,1.95
2023-04-22T07:54:15.713Z,2.45
2023-04-22T07:56:43.219Z,1.98
2023-04-22T07:59:10.798Z,2.25
2023-04-22T08:01:38.266Z,2.30
2023-04-22T08:04:05.964Z,2.40
2023-04-22T08:06:33.977Z,2.40
2023-04-22T08:09:01.427Z,2.38
2023-04-22T08:11:29.159Z,2.50
2023-04-22T08:13:56.677Z,2.13
2023-04-22T08:16:24.241Z,2.10
2023-04-22T08:18:52.570Z,2.35
2023-04-22T08:21:20.140Z,2.17
2023-04-22T08:23:48.143Z,1.85
2023-04-22T08:26:17.188Z,2.10
2023-04-22T08:28:44.815Z,2.10
2023-04-22T08:31:13.311Z,2.30
2023-04-22T08:33:41.912Z,2.55
2023-04-22T08:36:11.299Z,2.13
2023-04-22T08:38:38.873Z,2.60
2023-04-22T08:41:07.461Z,2.63
2023-04-22T08:43:35.806Z,2.30
2023-04-22T08:46:03.340Z,2.45
2023-04-22T08:48:31.088Z,2.45
2023-04-22T08:50:58.862Z,2.40
2023-04-22T08:53:26.534Z,2.45
2023-04-22T08:55:56.868Z,2.28
2023-04-22T08:58:24.922Z,2.45
2023-04-22T09:00:53.190Z,2.20
2023-04-22T09:03:22.179Z,2.63
2023-04-22T09:05:53.221Z,2.50
2023-04-22T09:08:21.186Z,2.35
2023-04-22T09:10:49.125Z,2.90
2023-04-22T09:13:18.071Z,2.90
2023-04-22T09:15:46.459Z,2.75
2023-04-22T09:18:18.719Z,3.15
2023-04-22T09:20:48.867Z,3.70
2023-04-22T09:23:16.711Z,3.70
2023-04-22T09:25:46.601Z,3.65
2023-04-22T09:28:19.056Z,3.92
2023-04-22T09:30:48.441Z,3.63
2023-04-22T09:33:17.701Z,3.75
2023-04-22T09:35:45.387Z,4.03
2023-04-22T09:38:13.836Z,4.65
2023-04-22T09:40:44.771Z,4.63
2023-04-22T09:43:12.803Z,5.45
2023-04-22T09:45:42.488Z,4.57
2023-04-22T09:48:18.633Z,5.13
2023-04-22T09:50:51.478Z,4.90
2023-04-22T09:53:21.920Z,5.30
2023-04-22T09:55:52.243Z,4.90
2023-04-22T09:58:21.936Z,4.68
2023-04-22T10:00:52.391Z,4.07
2023-04-22T10:03:20.685Z,3.20
2023-04-22T10:05:48.444Z,3.85
2023-04-22T10:08:17.104Z,3.40
2023-04-22T10:10:45.220Z,3.30
2023-04-22T10:13:12.953Z,3.97
2023-04-22T10:15:48.856Z,3.13
2023-04-22T10:18:21.989Z,3.58
2023-04-22T10:20:50.532Z,3.50
2023-04-22T10:23:22.966Z,3.97
2023-04-22T10:25:59.347Z,5.00
2023-04-22T10:28:30.368Z,4.40
2023-04-22T10:30:58.025Z,4.72
2023-04-22T10:33:28.023Z,5.30
2023-04-22T10:36:21.705Z,4.70
2023-04-22T10:38:54.872Z,4.65
2023-04-22T10:41:35.919Z,3.90
2023-04-22T10:44:08.440Z,3.75
2023-04-22T10:46:40.286Z,3.20
2023-04-22T10:49:18.780Z,3.90
2023-04-22T10:52:01.072Z,3.70
2023-04-22T10:54:37.787Z,3.67
2023-04-22T10:57:09.577Z,4.07
2023-04-22T10:59:53.415Z,3.88
2023-04-22T11:02:23.014Z,4.13
2023-04-22T11:04:53.976Z,4.00
2023-04-22T11:07:23.011Z,4.22
2023-04-22T11:09:52.666Z,4.10
2023-04-22T11:12:35.868Z,4.30
2023-04-22T11:17:35.918Z,4.97
2023-04-22T11:20:05.911Z,4.85
2023-04-22T11:22:44.399Z,4.60
2023-04-22T11:25:12.269Z,5.05
2023-04-22T11:27:43.734Z,4.47
2023-04-22T11:30:13.145Z,5.18
2023-04-22T11:32:46.063Z,4.68
2023-04-22T11:35:16.511Z,5.22
2023-04-22T11:37:49.383Z,5.18
2023-04-22T11:40:32.682Z,4.20
2023-04-22T11:43:03.755Z,4.80
2023-04-22T11:45:33.199Z,4.55
2023-04-22T11:48:01.999Z,4.70
2023-04-22T11:50:32.740Z,4.88
2023-04-22T11:53:03.801Z,4.22
2023-04-22T11:55:34.156Z,4.18
2023-04-22T11:58:06.166Z,4.13
2023-04-22T12:00:45.435Z,4.63
2023-04-22T12:03:18.619Z,5.53
2023-04-22T12:05:53.933Z,5.90
2023-04-22T12:08:27.051Z,5.35
2023-04-22T12:10:56.901Z,5.22
2023-04-22T12:13:30.661Z,5.43
2023-04-22T12:16:01.497Z,6.45
2023-04-22T12:18:37.399Z,5.90
2023-04-22T12:21:04.831Z,6.53
2023-04-22T12:23:48.082Z,5.95
2023-04-22T12:26:17.745Z,4.90
2023-04-22T12:28:46.152Z,5.85
2023-04-22T12:31:15.107Z,5.40
2023-04-22T12:33:43.542Z,5.30
2023-04-22T12:36:11.304Z,7.20
2023-04-22T12:38:39.792Z,5.22
2023-04-22T12:41:07.935Z,5.70
2023-04-22T12:43:39.713Z,5.18
2023-04-22T12:46:08.375Z,4.78
2023-04-22T12:48:37.864Z,5.65
2023-04-22T12:51:06.764Z,4.82
2023-04-22T12:53:35.136Z,5.20
2023-04-22T12:56:02.533Z,6.45
2023-04-22T12:58:30.217Z,4.70
2023-04-22T13:00:57.655Z,5.20
2023-04-22T13:03:25.270Z,4.47
2023-04-22T13:05:53.204Z,7.80
2023-04-22T13:08:20.664Z,5.57
2023-04-22T13:10:48.912Z,5.70
2023-04-22T13:13:18.836Z,6.22
2023-04-22T13:15:54.345Z,6.28
2023-04-22T13:18:23.519Z,6.80
2023-04-22T13:20:51.738Z,5.18
2023-04-22T13:23:22.184Z,7.38
2023-04-22T13:25:57.143Z,6.03
2023-04-22T13:28:24.712Z,9.38
2023-04-22T13:30:52.490Z,8.95
2023-04-22T13:33:20.077Z,7.30
2023-04-22T13:35:47.562Z,6.30
2023-04-22T13:38:15.175Z,5.28
2023-04-22T13:40:42.669Z,6.53
2023-04-22T13:43:10.391Z,5.32
2023-04-22T13:45:38.042Z,5.95
2023-04-22T13:48:05.861Z,5.22
2023-04-22T13:50:34.421Z,5.18
2023-04-22T13:53:03.982Z,5.45
2023-04-22T13:55:31.588Z,5.28
2023-04-22T13:57:59.189Z,6.63
2023-04-22T14:00:26.741Z,5.70
2023-04-22T14:02:54.472Z,6.00
2023-04-22T14:05:22.090Z,5.55
2023-04-22T14:07:49.779Z,5.45
2023-04-22T14:10:20.535Z,5.15
2023-04-22T14:12:48.853Z,5.35
2023-04-22T14:15:16.553Z,6.20
2023-04-22T14:17:44.177Z,6.18
2023-04-22T14:20:11.815Z,5.80
2023-04-22T14:22:39.348Z,6.40
2023-04-22T14:25:08.113Z,5.43
2023-04-22T14:27:36.061Z,5.90
2023-04-22T14:30:06.479Z,5.50
2023-04-22T14:32:34.300Z,5.85
2023-04-22T14:35:02.129Z,5.70
2023-04-22T14:37:31.870Z,5.93
2023-04-22T14:39:59.421Z,6.10
2023-04-22T14:42:27.708Z,7.72
2023-04-22T14:44:55.280Z,9.52
2023-04-22T14:47:23.007Z,7.38
2023-04-22T14:49:50.945Z,6.85
2023-04-22T14:52:18.632Z,8.98
2023-04-22T14:54:47.640Z,7.13
2023-04-22T14:57:16.000Z,6.03
2023-04-22T14:59:43.585Z,6.07
2023-04-22T15:02:16.171Z,5.30
2023-04-22T15:04:44.728Z,5.30
2023-04-22T15:07:12.371Z,5.90
2023-04-22T15:09:40.727Z,5.57
2023-04-22T15:12:08.485Z,5.90
2023-04-22T15:14:37.084Z,6.15
2023-04-22T15:17:05.787Z,5.97
2023-04-22T15:19:33.414Z,5.43
2023-04-22T15:22:01.224Z,5.10
2023-04-22T15:24:31.292Z,3.47
2023-04-22T15:26:59.271Z,4.47
2023-04-22T15:29:28.686Z,4.20
2023-04-22T15:31:57.074Z,4.20
2023-04-22T15:34:25.353Z,4.85
2023-04-22T15:36:52.923Z,4.20
2023-04-22T15:39:20.859Z,4.10
2023-04-22T15:41:48.384Z,3.90
2023-04-22T15:44:17.113Z,3.88
2023-04-22T15:46:46.757Z,4.03
2023-04-22T15:49:15.203Z,3.65
2023-04-22T15:51:42.774Z,3.83
2023-04-22T15:54:10.733Z,4.50
2023-04-22T15:56:38.381Z,3.85
2023-04-22T15:59:05.850Z,3.83
2023-04-22T16:01:33.386Z,4.13
2023-04-22T16:04:01.585Z,4.18
2023-04-22T16:06:29.376Z,4.38
2023-04-22T16:08:57.103Z,3.45
2023-04-22T16:11:24.630Z,3.90
2023-04-22T16:13:52.114Z,4.15
2023-04-22T16:16:19.684Z,4.40
2023-04-22T16:18:48.220Z,4.22
2023-04-22T16:21:15.848Z,4.00
2023-04-22T16:23:43.709Z,3.72
2023-04-22T16:26:11.244Z,4.40
2023-04-22T16:28:38.880Z,3.28
2023-04-22T16:31:06.629Z,4.22
2023-04-22T16:33:34.220Z,4.95
2023-04-22T16:36:02.398Z,4.53
2023-04-22T16:38:29.957Z,5.35
2023-04-22T16:40:57.701Z,5.22
2023-04-22T16:43:25.260Z,5.72
2023-04-22T16:45:52.735Z,5.00
2023-04-22T16:48:20.415Z,5.40
2023-04-22T16:50:48.348Z,7.10
2023-04-22T16:53:15.950Z,5.38
2023-04-22T16:55:43.729Z,4.97
2023-04-22T16:58:12.417Z,8.35
2023-04-22T17:00:40.079Z,6.53
2023-04-22T17:03:08.298Z,5.97
2023-04-22T17:05:36.236Z,5.35
2023-04-22T17:08:03.768Z,5.60
2023-04-22T17:10:31.724Z,6.07
2023-04-22T17:12:59.265Z,4.97
2023-04-22T17:15:28.068Z,5.40
2023-04-22T17:17:55.564Z,4.63
2023-04-22T17:20:23.208Z,4.57
2023-04-22T17:22:54.790Z,4.97
2023-04-22T17:25:22.579Z,4.32
2023-04-22T17:27:50.089Z,3.45
2023-04-22T17:30:17.603Z,4.00
2023-04-22T17:32:45.181Z,3.13
2023-04-22T17:35:12.870Z,3.60
2023-04-22T17:37:40.450Z,3.15
2023-04-22T17:40:09.248Z,3.13
2023-04-22T17:42:45.976Z,3.58
2023-04-22T17:45:14.297Z,2.42
2023-04-22T17:47:42.197Z,2.30
2023-04-22T17:50:10.222Z,3.92
2023-04-22T17:52:37.744Z,2.50
2023-04-22T17:55:06.170Z,1.77
2023-04-22T17:57:33.837Z,1.90
2023-04-22T18:00:01.565Z,2.35
2023-04-22T18:02:31.235Z,2.28
2023-04-22T18:04:58.831Z,2.15
2023-04-22T18:07:26.431Z,2.20
2023-04-22T18:09:56.950Z,2.50
2023-04-22T18:12:28.595Z,2.58
2023-04-22T18:14:57.591Z,3.33
2023-04-22T18:17:25.185Z,2.95
2023-04-22T18:20:02.869Z,2.80
2023-04-22T18:22:37.826Z,3.28
2023-04-22T18:25:06.062Z,4.43
2023-04-22T18:27:33.739Z,3.63
2023-04-22T18:30:01.196Z,5.70
2023-04-22T18:32:30.671Z,5.75
2023-04-22T18:34:58.973Z,5.78
2023-04-22T18:37:30.207Z,4.90
2023-04-22T18:39:58.069Z,4.82
2023-04-22T18:42:25.741Z,4.65
2023-04-22T18:44:53.361Z,4.97
2023-04-22T18:47:21.335Z,4.90
2023-04-22T18:49:48.930Z,4.70
2023-04-22T18:52:17.524Z,4.22
2023-04-22T18:54:45.179Z,4.20
2023-04-22T18:57:13.131Z,3.75
2023-04-22T18:59:40.760Z,3.92
2023-04-22T19:02:11.819Z,3.90
2023-04-22T19:04:40.072Z,3.17
2023-04-22T19:07:07.880Z,3.30
2023-04-22T19:09:35.573Z,2.95
2023-04-22T19:12:03.286Z,2.67
2023-04-22T19:14:30.937Z,3.17
2023-04-22T19:16:58.551Z,3.30
2023-04-22T19:19:26.070Z,2.88
2023-04-22T19:21:53.678Z,2.97
2023-04-22T19:24:21.838Z,2.38
2023-04-22T19:26:49.639Z,2.50
2023-04-22T19:29:17.400Z,2.20
2023-04-22T19:31:45.337Z,2.53
2023-04-22T19:34:13.493Z,2.22
2023-04-22T19:36:41.039Z,2.30
2023-04-22T19:39:08.856Z,2.50
2023-04-22T19:41:38.438Z,2.30
2023-04-22T19:44:05.995Z,2.45
2023-04-22T19:46:33.543Z,2.55
2023-04-22T19:49:01.439Z,2.35
2023-04-22T19:51:28.999Z,2.00
2023-04-22T19:53:57.693Z,2.40
2023-04-22T19:56:25.884Z,2.47
2023-04-22T19:58:53.628Z,2.40
2023-04-22T20:01:21.599Z,2.30
2023-04-22T20:03:50.002Z,2.67
2023-04-22T20:06:18.538Z,2.95
2023-04-22T20:08:46.453Z,2.75
2023-04-22T20:11:14.315Z,3.28
2023-04-22T20:13:42.648Z,3.20
2023-04-22T20:16:10.898Z,3.33
2023-04-22T20:18:38.670Z,3.08
2023-04-22T20:21:06.780Z,4.18
2023-04-22T20:23:34.431Z,3.78
2023-04-22T20:26:03.278Z,4.45
2023-04-22T20:28:52.227Z,4.78
2023-04-22T20:31:22.838Z,9.10
2023-04-22T20:33:51.417Z,4.90
2023-04-22T20:36:20.471Z,7.68
2023-04-22T20:38:51.241Z,6.38
2023-04-22T20:41:19.034Z,4.10
2023-04-22T20:43:47.537Z,7.30
2023-04-22T20:46:15.406Z,5.43
2023-04-22T20:48:42.991Z,8.55
2023-04-22T20:51:10.587Z,7.03
2023-04-22T20:53:38.516Z,7.13
2023-04-22T20:56:07.706Z,4.70
2023-04-22T20:58:35.211Z,5.65
2023-04-22T21:01:02.850Z,7.43
2023-04-22T21:03:31.371Z,7.55
2023-04-22T21:06:01.416Z,5.80
2023-04-22T21:08:29.329Z,6.57
2023-04-22T21:10:57.341Z,6.13
2023-04-22T21:13:25.165Z,7.43
2023-04-22T21:16:01.671Z,5.97
2023-04-22T21:18:32.096Z,5.90
2023-04-22T21:21:04.825Z,6.03
2023-04-22T21:23:32.812Z,5.35
2023-04-22T21:26:02.061Z,5.63
2023-04-22T21:28:30.635Z,5.93
2023-04-22T21:30:58.386Z,6.22
2023-04-22T21:33:25.968Z,5.30
2023-04-22T21:35:53.677Z,5.95
2023-04-22T21:38:21.597Z,4.28
2023-04-22T21:40:49.206Z,5.05
2023-04-22T21:43:16.748Z,5.20
2023-04-22T21:45:44.392Z,5.10
2023-04-22T21:48:11.951Z,5.50
2023-04-22T21:50:39.469Z,5.22
2023-04-22T21:53:07.131Z,5.22
2023-04-22T21:55:34.678Z,5.47
2023-04-22T21:58:02.398Z,5.38
2023-04-22T22:00:31.232Z,5.13
2023-04-22T22:02:58.855Z,4.57
2023-04-22T22:05:26.488Z,5.80
2023-04-22T22:07:55.540Z,5.60
2023-04-22T22:10:23.943Z,5.53
2023-04-22T22:12:51.653Z,5.80
2023-04-22T22:15:19.252Z,5.68
2023-04-22T22:17:46.940Z,6.25
2023-04-22T22:20:20.679Z,6.43
2023-04-22T22:22:48.312Z,5.80
2023-04-22T22:25:16.984Z,5.93
2023-04-22T22:27:49.511Z,5.68
2023-04-22T22:30:18.986Z,5.45
2023-04-22T22:32:46.693Z,6.43
2023-04-22T22:35:14.566Z,6.95
2023-04-22T22:37:42.186Z,6.90
2023-04-22T22:40:10.430Z,5.40
2023-04-22T22:42:37.940Z,5.88
2023-04-22T22:45:05.811Z,5.95
2023-04-22T22:47:33.538Z,5.10
2023-04-22T22:50:01.100Z,5.90
2023-04-22T22:52:29.310Z,5.10
2023-04-22T22:54:56.798Z,4.57
2023-04-22T22:57:24.487Z,5.30
2023-04-22T22:59:52.122Z,4.00
2023-04-22T23:02:19.807Z,4.28
2023-04-22T23:04:47.838Z,4.25
2023-04-22T23:07:17.353Z,3.30
2023-04-22T23:09:45.741Z,3.35
2023-04-22T23:12:13.272Z,3.60
2023-04-22T23:14:41.224Z,3.88
2023-04-22T23:17:09.108Z,3.67
2023-04-22T23:19:36.960Z,3.80
2023-04-22T23:22:07.095Z,3.90
2023-04-22T23:24:34.761Z,3.70
2023-04-22T23:27:03.375Z,3.63
2023-04-22T23:29:31.200Z,3.63
2023-04-22T23:32:02.886Z,3.15
2023-04-22T23:34:34.013Z,3.08
2023-04-22T23:37:05.886Z,3.13
2023-04-22T23:39:33.531Z,2.75
2023-04-22T23:42:01.445Z,2.67
2023-04-22T23:44:29.037Z,2.92
2023-04-22T23:46:56.888Z,2.90
2023-04-22T23:49:24.450Z,2.50
2023-04-22T23:51:51.950Z,3.30
2023-04-22T23:54:19.548Z,2.63
2023-04-22T23:56:47.380Z,3.25
2023-04-22T23:59:15.107Z,2.80
